createdAt,value
2023-03-29T00:01:45.204Z,511.00
2023-03-29T00:03:45.235Z,507.00
2023-03-29T00:06:45.123Z,508.00
2023-03-29T00:08:45.085Z,511.00
2023-03-29T00:10:45.056Z,511.00
2023-03-29T00:12:45.033Z,507.00
2023-03-29T00:15:44.978Z,503.00
2023-03-29T00:17:44.968Z,503.00
2023-03-29T00:19:44.932Z,508.00
2023-03-29T00:21:44.920Z,508.00
2023-03-29T00:22:44.891Z,510.00
2023-03-29T00:23:44.889Z,508.00
2023-03-29T00:28:44.839Z,508.00
2023-03-29T00:30:44.823Z,506.00
2023-03-29T00:32:44.851Z,507.00
2023-03-29T00:33:44.780Z,501.00
2023-03-29T00:35:44.785Z,504.00
2023-03-29T00:39:44.697Z,508.00
2023-03-29T00:40:44.692Z,508.00
2023-03-29T00:42:44.684Z,502.00
2023-03-29T00:44:44.664Z,509.00
2023-03-29T00:46:44.689Z,509.00
2023-03-29T00:49:44.600Z,511.00
2023-03-29T00:51:44.576Z,503.00
2023-03-29T00:54:44.529Z,506.00
2023-03-29T00:55:44.518Z,512.00
2023-03-29T00:56:44.504Z,506.00
2023-03-29T00:57:44.467Z,507.00
2023-03-29T01:01:44.463Z,506.00
2023-03-29T01:03:44.455Z,506.00
2023-03-29T01:05:44.371Z,504.00
2023-03-29T01:07:44.324Z,504.00
2023-03-29T01:09:44.322Z,506.00
2023-03-29T01:12:44.271Z,508.00
2023-03-29T01:14:44.266Z,508.00
2023-03-29T01:16:44.276Z,503.00
2023-03-29T01:18:44.204Z,506.00
2023-03-29T01:21:44.165Z,508.00
2023-03-29T01:22:44.145Z,502.00
2023-03-29T01:23:44.136Z,504.00
2023-03-29T01:27:44.051Z,504.00
2023-03-29T01:28:44.025Z,504.00
2023-03-29T01:31:44.012Z,503.00
2023-03-29T01:32:44.005Z,504.00
2023-03-29T01:33:44.095Z,504.00
2023-03-29T01:37:43.864Z,506.00
2023-03-29T01:38:43.845Z,508.00
2023-03-29T01:39:43.824Z,507.00
2023-03-29T01:44:43.738Z,506.00
2023-03-29T01:46:43.729Z,509.00
2023-03-29T01:49:43.670Z,510.00
2023-03-29T01:50:43.653Z,507.00
2023-03-29T01:53:43.614Z,508.00
2023-03-29T01:55:43.568Z,505.00
2023-03-29T01:58:43.509Z,507.00
2023-03-29T01:59:43.491Z,506.00
2023-03-29T02:00:43.481Z,503.00
2023-03-29T02:04:43.397Z,509.00
2023-03-29T02:06:43.356Z,503.00
2023-03-29T02:08:43.329Z,504.00
2023-03-29T02:09:43.310Z,506.00
2023-03-29T02:11:43.294Z,508.00
2023-03-29T02:15:43.247Z,510.00
2023-03-29T02:17:43.212Z,509.00
2023-03-29T02:18:43.146Z,506.00
2023-03-29T02:23:43.060Z,506.00
2023-03-29T02:24:43.020Z,500.00
2023-03-29T02:26:42.994Z,513.00
2023-03-29T02:27:43.031Z,503.00
2023-03-29T02:31:43.050Z,507.00
2023-03-29T02:34:42.850Z,512.00
2023-03-29T02:35:42.866Z,513.00
2023-03-29T02:36:42.834Z,509.00
2023-03-29T02:39:42.808Z,502.00
2023-03-29T02:43:42.701Z,503.00
2023-03-29T02:45:42.645Z,508.00
2023-03-29T02:48:42.587Z,507.00
2023-03-29T02:49:42.558Z,509.00
2023-03-29T02:54:42.455Z,504.00
2023-03-29T02:55:42.441Z,508.00
2023-03-29T02:58:42.375Z,501.00
2023-03-29T02:59:42.359Z,500.00
2023-03-29T03:05:42.385Z,400.00
2023-03-29T03:06:42.239Z,400.00
2023-03-29T03:10:42.153Z,433.00
2023-03-29T03:11:42.163Z,460.00
2023-03-29T03:12:42.120Z,472.00
2023-03-29T03:13:42.120Z,498.00
2023-03-29T03:15:42.088Z,497.00
2023-03-29T03:18:42.032Z,505.00
2023-03-29T03:21:41.989Z,500.00
2023-03-29T03:22:41.964Z,504.00
2023-03-29T03:26:41.923Z,500.00
2023-03-29T03:30:41.858Z,502.00
2023-03-29T03:31:41.899Z,505.00
2023-03-29T03:33:41.851Z,507.00
2023-03-29T03:35:41.866Z,504.00
2023-03-29T03:39:41.798Z,500.00
2023-03-29T03:42:41.778Z,504.00
2023-03-29T03:44:41.750Z,521.00
2023-03-29T03:45:41.834Z,497.00
2023-03-29T03:47:41.744Z,491.00
2023-03-29T03:51:41.671Z,457.00
2023-03-29T03:52:41.666Z,482.00
2023-03-29T03:57:41.607Z,502.00
2023-03-29T03:58:41.608Z,504.00
2023-03-29T03:59:41.589Z,494.00
2023-03-29T04:00:41.628Z,502.00
2023-03-29T04:01:41.563Z,534.00
2023-03-29T04:03:41.664Z,586.00
2023-03-29T04:08:41.459Z,517.00
2023-03-29T04:09:41.518Z,500.00
2023-03-29T04:10:41.470Z,503.00
2023-03-29T04:12:41.422Z,549.00
2023-03-29T04:17:41.477Z,571.00
2023-03-29T04:18:41.422Z,559.00
2023-03-29T04:19:41.367Z,548.00
2023-03-29T04:21:41.351Z,461.00
2023-03-29T04:23:41.336Z,456.00
2023-03-29T04:25:41.345Z,510.00
2023-03-29T04:30:41.289Z,702.00
2023-03-29T04:33:41.282Z,773.00
2023-03-29T04:35:41.278Z,814.00
2023-03-29T04:36:41.247Z,816.00
2023-03-29T04:40:41.209Z,863.00
2023-03-29T04:43:41.181Z,826.00
2023-03-29T04:44:41.202Z,826.00
2023-03-29T04:47:41.152Z,654.00
2023-03-29T04:50:41.110Z,605.00
2023-03-29T04:51:41.142Z,550.00
2023-03-29T04:55:41.094Z,436.00
2023-03-29T04:56:41.120Z,428.00
2023-03-29T04:58:41.073Z,501.00
2023-03-29T05:00:41.073Z,522.00
2023-03-29T05:02:41.083Z,516.00
2023-03-29T05:03:41.069Z,500.00
2023-03-29T05:04:41.122Z,505.00
2023-03-29T05:06:41.048Z,543.00
2023-03-29T05:07:41.075Z,549.00
2023-03-29T05:09:41.045Z,582.00
2023-03-29T05:10:41.053Z,568.00
2023-03-29T05:15:41.370Z,587.00
2023-03-29T05:16:41.071Z,638.00
2023-03-29T05:20:41.022Z,1087.00
2023-03-29T05:21:42.096Z,1191.00
2023-03-29T05:22:41.000Z,1299.00
2023-03-29T05:23:41.004Z,1390.00
2023-03-29T05:27:40.986Z,1546.00
2023-03-29T05:30:40.994Z,1462.00
2023-03-29T05:31:40.998Z,1557.00
2023-03-29T05:32:41.003Z,1576.00
2023-03-29T05:35:41.059Z,1739.00
2023-03-29T05:36:41.160Z,1816.00
2023-03-29T05:38:41.188Z,1948.00
2023-03-29T05:39:41.192Z,2014.00
2023-03-29T05:40:41.256Z,2061.00
2023-03-29T05:41:41.450Z,2134.00
2023-03-29T05:42:41.357Z,2188.00
2023-03-29T05:43:41.412Z,2272.00
2023-03-29T05:44:41.520Z,2285.00
2023-03-29T05:45:41.544Z,2322.00
2023-03-29T05:46:41.587Z,2369.00
2023-03-29T05:47:41.648Z,2374.00
2023-03-29T05:48:41.690Z,2379.00
2023-03-29T05:49:41.761Z,1984.00
2023-03-29T05:50:43.282Z,1816.00
2023-03-29T05:51:41.946Z,1545.00
2023-03-29T05:52:41.930Z,1259.00
2023-03-29T05:53:41.944Z,1092.00
2023-03-29T05:54:41.939Z,1261.00
2023-03-29T05:55:41.933Z,1312.00
2023-03-29T05:57:41.944Z,1567.00
2023-03-29T05:58:41.923Z,1672.00
2023-03-29T05:59:41.930Z,1743.00
2023-03-29T06:01:41.914Z,1965.00
2023-03-29T06:05:41.920Z,2160.00
2023-03-29T06:08:41.877Z,2360.00
2023-03-29T06:09:41.850Z,2382.00
2023-03-29T06:10:41.867Z,2413.00
2023-03-29T06:12:41.829Z,2407.00
2023-03-29T06:17:41.797Z,2406.00
2023-03-29T06:19:41.749Z,2508.00
2023-03-29T06:20:41.744Z,2560.00
2023-03-29T06:21:41.721Z,2504.00
2023-03-29T06:23:41.713Z,2542.00
2023-03-29T06:26:41.717Z,2625.00
2023-03-29T06:27:41.692Z,2625.00
2023-03-29T06:29:41.664Z,2649.00
2023-03-29T06:31:41.673Z,2664.00
2023-03-29T06:32:41.640Z,2618.00
2023-03-29T06:35:41.652Z,2697.00
2023-03-29T06:39:41.535Z,2794.00
2023-03-29T06:40:41.540Z,2753.00
2023-03-29T06:42:41.509Z,2709.00
2023-03-29T06:43:41.477Z,2719.00
2023-03-29T06:44:41.481Z,2708.00
2023-03-29T06:48:41.426Z,3048.00
2023-03-29T06:49:41.404Z,3101.00
2023-03-29T06:51:41.356Z,2913.00
2023-03-29T06:53:41.321Z,2206.00
2023-03-29T06:54:41.334Z,2000.00
2023-03-29T06:55:41.325Z,1743.00
2023-03-29T06:56:41.334Z,1612.00
2023-03-29T07:01:41.230Z,2216.00
2023-03-29T07:02:41.204Z,2218.00
2023-03-29T07:04:41.177Z,2282.00
2023-03-29T07:05:41.138Z,2363.00
2023-03-29T07:07:41.110Z,2484.00
2023-03-29T07:09:41.079Z,2550.00
2023-03-29T07:12:41.055Z,2570.00
2023-03-29T07:14:40.989Z,2509.00
2023-03-29T07:15:40.986Z,2550.00
2023-03-29T07:18:40.915Z,2599.00
2023-03-29T07:19:40.910Z,2606.00
2023-03-29T07:20:40.891Z,2629.00
2023-03-29T07:23:40.807Z,2722.00
2023-03-29T07:25:40.767Z,2826.00
2023-03-29T07:26:52.368Z,2850.00
2023-03-29T07:27:41.732Z,2833.00
2023-03-29T07:29:40.695Z,2863.00
2023-03-29T07:30:40.672Z,2915.00
2023-03-29T07:31:40.663Z,2926.00
2023-03-29T07:33:40.713Z,2971.00
2023-03-29T07:34:40.594Z,2974.00
2023-03-29T07:38:40.529Z,3054.00
2023-03-29T07:40:40.484Z,3233.00
2023-03-29T07:41:40.452Z,3318.00
2023-03-29T07:42:40.465Z,3396.00
2023-03-29T07:43:40.434Z,3454.00
2023-03-29T07:44:40.418Z,3498.00
2023-03-29T07:45:40.455Z,3554.00
2023-03-29T07:46:40.456Z,3556.00
2023-03-29T07:47:40.558Z,3588.00
2023-03-29T07:48:40.527Z,3593.00
2023-03-29T07:49:40.566Z,3616.00
2023-03-29T07:50:40.617Z,3614.00
2023-03-29T07:51:40.594Z,3615.00
2023-03-29T07:52:40.572Z,3615.00
2023-03-29T07:54:40.524Z,3514.00
2023-03-29T07:55:40.501Z,3501.00
2023-03-29T08:01:40.361Z,3464.00
2023-03-29T08:02:40.374Z,3446.00
2023-03-29T08:03:40.335Z,3414.00
2023-03-29T08:04:40.345Z,3364.00
2023-03-29T08:05:41.752Z,3337.00
2023-03-29T08:06:40.246Z,3303.00
2023-03-29T08:11:40.133Z,3231.00
2023-03-29T08:12:40.110Z,3224.00
2023-03-29T08:13:40.082Z,3191.00
2023-03-29T08:14:40.057Z,3177.00
2023-03-29T08:16:40.047Z,3154.00
2023-03-29T08:18:39.949Z,3105.00
2023-03-29T08:23:39.831Z,3024.00
2023-03-29T08:24:39.807Z,3034.00
2023-03-29T08:25:39.794Z,3040.00
2023-03-29T08:26:39.756Z,3079.00
2023-03-29T08:29:39.664Z,3046.00
2023-03-29T08:32:39.684Z,3138.00
2023-03-29T08:34:39.550Z,3207.00
2023-03-29T08:35:39.642Z,3193.00
2023-03-29T08:37:39.511Z,3164.00
2023-03-29T08:39:39.458Z,3107.00
2023-03-29T08:44:39.354Z,2953.00
2023-03-29T08:45:39.347Z,2972.00
2023-03-29T08:47:39.316Z,2903.00
2023-03-29T08:51:39.207Z,2812.00
2023-03-29T08:54:39.160Z,2944.00
2023-03-29T08:55:39.130Z,2974.00
2023-03-29T08:57:39.095Z,2939.00
2023-03-29T08:58:39.099Z,2963.00
2023-03-29T09:00:39.033Z,3013.00
2023-03-29T09:03:39.108Z,3188.00
2023-03-29T09:04:38.982Z,3220.00
2023-03-29T09:06:38.940Z,3296.00
2023-03-29T09:07:38.942Z,3315.00
2023-03-29T09:11:38.863Z,3404.00
2023-03-29T09:13:38.830Z,3388.00
2023-03-29T09:14:38.845Z,3398.00
2023-03-29T09:16:38.786Z,3414.00
2023-03-29T09:18:38.741Z,3415.00
2023-03-29T09:19:38.729Z,3399.00
2023-03-29T09:20:38.695Z,3373.00
2023-03-29T09:26:38.606Z,3253.00
2023-03-29T09:28:38.564Z,3293.00
2023-03-29T09:31:38.554Z,3229.00
2023-03-29T09:36:38.404Z,3277.00
2023-03-29T09:38:38.372Z,3239.00
2023-03-29T09:39:38.377Z,3239.00
2023-03-29T09:40:38.364Z,3246.00
2023-03-29T09:44:38.276Z,3136.00
2023-03-29T09:47:38.301Z,3046.00
2023-03-29T09:48:38.225Z,2971.00
2023-03-29T09:50:38.181Z,2880.00
2023-03-29T09:51:38.151Z,2830.00
2023-03-29T09:54:38.092Z,2716.00
2023-03-29T09:55:38.064Z,2683.00
2023-03-29T09:58:38.011Z,2537.00
2023-03-29T09:59:37.998Z,2509.00
2023-03-29T10:00:37.967Z,2476.00
2023-03-29T10:04:38.036Z,2330.00
2023-03-29T10:07:37.829Z,2324.00
2023-03-29T10:08:37.834Z,2333.00
2023-03-29T10:09:37.800Z,2322.00
2023-03-29T10:10:37.765Z,2292.00
2023-03-29T10:11:37.746Z,2288.00
2023-03-29T10:17:37.666Z,2263.00
2023-03-29T10:18:37.590Z,2260.00
2023-03-29T10:20:37.568Z,2241.00
2023-03-29T10:22:37.529Z,2224.00
2023-03-29T10:24:37.467Z,2199.00
2023-03-29T10:26:37.435Z,2208.00
2023-03-29T10:27:37.422Z,2229.00
2023-03-29T10:30:37.369Z,2405.00
2023-03-29T10:32:37.381Z,2515.00
2023-03-29T10:33:37.316Z,2538.00
2023-03-29T10:35:37.331Z,2603.00
2023-03-29T10:37:37.243Z,2679.00
2023-03-29T10:42:37.122Z,2839.00
2023-03-29T10:43:37.138Z,2871.00
2023-03-29T10:44:37.128Z,2883.00
2023-03-29T10:45:37.080Z,2885.00
2023-03-29T10:47:37.072Z,2899.00
2023-03-29T10:48:37.001Z,2925.00
2023-03-29T10:51:36.928Z,3087.00
2023-03-29T10:55:36.922Z,3161.00
2023-03-29T10:56:36.853Z,3173.00
2023-03-29T10:57:37.058Z,3208.00
2023-03-29T10:58:36.800Z,3212.00
2023-03-29T10:59:36.840Z,3252.00
2023-03-29T11:01:36.754Z,3287.00
2023-03-29T11:05:36.703Z,3344.00
2023-03-29T11:06:36.673Z,3329.00
2023-03-29T11:08:36.679Z,3349.00
2023-03-29T11:10:36.616Z,3355.00
2023-03-29T11:13:36.584Z,3356.00
2023-03-29T11:17:36.601Z,3397.00
2023-03-29T11:19:36.464Z,3414.00
2023-03-29T11:20:36.435Z,3420.00
2023-03-29T11:21:36.443Z,3413.00
2023-03-29T11:24:36.372Z,3390.00
2023-03-29T11:27:36.296Z,3450.00
2023-03-29T11:28:36.276Z,3458.00
2023-03-29T11:30:36.246Z,3460.00
2023-03-29T11:31:38.390Z,3466.00
2023-03-29T11:33:36.441Z,3500.00
2023-03-29T11:35:36.466Z,3531.00
2023-03-29T11:38:36.381Z,3533.00
2023-03-29T11:40:36.384Z,3517.00
2023-03-29T11:41:36.429Z,3528.00
2023-03-29T11:42:36.458Z,3545.00
2023-03-29T11:43:36.505Z,3538.00
2023-03-29T11:44:36.545Z,3509.00
2023-03-29T11:45:36.585Z,3496.00
2023-03-29T11:46:36.667Z,3496.00
2023-03-29T11:47:36.705Z,3483.00
2023-03-29T11:48:36.704Z,3442.00
2023-03-29T11:49:36.771Z,3400.00
2023-03-29T11:50:36.955Z,3326.00
2023-03-29T11:51:36.833Z,3310.00
2023-03-29T11:52:36.876Z,3312.00
2023-03-29T11:53:36.914Z,3314.00
2023-03-29T11:54:36.946Z,3288.00
2023-03-29T11:55:37.006Z,3241.00
2023-03-29T11:56:37.020Z,3222.00
2023-03-29T11:57:37.107Z,3197.00
2023-03-29T11:58:38.983Z,3146.00
2023-03-29T12:03:37.226Z,2963.00
2023-03-29T12:04:37.079Z,2955.00
2023-03-29T12:05:37.126Z,2934.00
2023-03-29T12:06:37.162Z,2910.00
2023-03-29T12:07:37.210Z,2881.00
2023-03-29T12:08:37.285Z,2862.00
2023-03-29T12:10:37.204Z,2859.00
2023-03-29T12:16:37.214Z,2759.00
2023-03-29T12:17:37.124Z,2732.00
2023-03-29T12:18:37.111Z,2713.00
2023-03-29T12:19:40.930Z,2709.00
2023-03-29T12:20:38.060Z,2709.00
2023-03-29T12:23:37.012Z,2683.00
2023-03-29T12:24:36.996Z,2677.00
2023-03-29T12:26:36.973Z,2747.00
2023-03-29T12:29:36.929Z,2770.00
2023-03-29T12:30:36.919Z,2793.00
2023-03-29T12:31:36.941Z,2849.00
2023-03-29T12:34:36.861Z,2894.00
2023-03-29T12:35:36.873Z,2750.00
2023-03-29T12:37:36.834Z,2633.00
2023-03-29T12:39:36.830Z,2429.00
2023-03-29T12:40:36.785Z,2183.00
2023-03-29T12:42:36.743Z,1995.00
2023-03-29T12:43:36.730Z,1919.00
2023-03-29T12:45:36.706Z,1782.00
2023-03-29T12:46:36.725Z,1446.00
2023-03-29T12:47:36.713Z,1428.00
2023-03-29T12:49:36.659Z,1319.00
2023-03-29T12:50:36.657Z,1169.00
2023-03-29T12:51:36.647Z,1187.00
2023-03-29T12:52:36.596Z,1052.00
2023-03-29T12:53:36.605Z,1006.00
2023-03-29T12:54:36.558Z,963.00
2023-03-29T12:55:36.545Z,962.00
2023-03-29T12:56:36.542Z,858.00
2023-03-29T12:57:36.542Z,796.00
2023-03-29T12:58:36.550Z,758.00
2023-03-29T13:00:32.149Z,500.00
2023-03-29T13:01:32.177Z,500.00
2023-03-29T13:02:32.164Z,500.00
2023-03-29T13:03:32.106Z,500.00
2023-03-29T13:04:32.112Z,500.00
2023-03-29T13:05:32.147Z,524.00
2023-03-29T13:06:32.139Z,556.00
2023-03-29T13:07:32.243Z,569.00
2023-03-29T13:08:32.198Z,576.00
2023-03-29T13:09:32.106Z,535.00
2023-03-29T13:10:32.102Z,506.00
2023-03-29T13:11:32.095Z,506.00
2023-03-29T13:12:33.597Z,475.00
2023-03-29T13:13:32.096Z,472.00
2023-03-29T13:14:32.131Z,478.00
2023-03-29T13:15:32.162Z,501.00
2023-03-29T13:16:32.177Z,477.00
2023-03-29T13:17:32.162Z,488.00
2023-03-29T13:18:32.153Z,527.00
2023-03-29T13:19:32.151Z,563.00
2023-03-29T13:20:32.142Z,673.00
2023-03-29T13:21:32.142Z,757.00
2023-03-29T13:22:32.146Z,740.00
2023-03-29T13:23:32.162Z,608.00
2023-03-29T13:24:32.162Z,620.00
2023-03-29T13:25:32.153Z,637.00
2023-03-29T13:26:32.159Z,646.00
2023-03-29T13:27:32.189Z,751.00
2023-03-29T13:28:32.249Z,1086.00
2023-03-29T13:29:32.289Z,1389.00
2023-03-29T13:30:32.348Z,1621.00
2023-03-29T13:31:32.464Z,1726.00
2023-03-29T13:32:32.491Z,1815.00
2023-03-29T13:33:32.476Z,1843.00
2023-03-29T13:34:32.486Z,1775.00
2023-03-29T13:35:32.570Z,1757.00
2023-03-29T13:36:33.517Z,1689.00
2023-03-29T13:37:32.579Z,1447.00
2023-03-29T13:38:32.637Z,1097.00
2023-03-29T13:39:32.705Z,1122.00
2023-03-29T13:40:32.741Z,1116.00
2023-03-29T13:41:32.763Z,1177.00
2023-03-29T13:42:32.808Z,1203.00
2023-03-29T13:43:32.865Z,1207.00
2023-03-29T13:44:32.923Z,1189.00
2023-03-29T13:45:32.997Z,943.00
2023-03-29T13:46:33.058Z,845.00
2023-03-29T13:47:33.140Z,958.00
2023-03-29T13:48:33.179Z,872.00
2023-03-29T13:49:33.114Z,811.00
2023-03-29T13:50:33.122Z,915.00
2023-03-29T13:51:33.127Z,950.00
2023-03-29T13:52:33.198Z,979.00
2023-03-29T13:53:33.166Z,911.00
2023-03-29T13:54:33.197Z,929.00
2023-03-29T13:55:35.481Z,857.00
2023-03-29T13:56:33.217Z,829.00
2023-03-29T13:57:33.230Z,850.00
2023-03-29T13:58:33.259Z,914.00
2023-03-29T13:59:33.248Z,958.00
2023-03-29T14:00:33.281Z,969.00
2023-03-29T14:01:33.258Z,1020.00
2023-03-29T14:02:33.363Z,1037.00
2023-03-29T14:03:33.286Z,1097.00
2023-03-29T14:04:33.295Z,1091.00
2023-03-29T14:05:33.300Z,895.00
2023-03-29T14:06:33.317Z,811.00
2023-03-29T14:07:33.324Z,869.00
2023-03-29T14:08:35.436Z,765.00
2023-03-29T14:09:33.567Z,736.00
2023-03-29T14:10:33.563Z,714.00
2023-03-29T14:11:33.606Z,680.00
2023-03-29T14:12:33.642Z,727.00
2023-03-29T14:13:33.673Z,698.00
2023-03-29T14:14:33.733Z,648.00
2023-03-29T14:15:33.783Z,648.00
2023-03-29T14:16:33.882Z,733.00
2023-03-29T14:17:34.022Z,771.00
2023-03-29T14:18:33.931Z,1036.00
2023-03-29T14:19:33.967Z,1424.00
2023-03-29T14:20:34.036Z,1696.00
2023-03-29T14:21:34.109Z,1914.00
2023-03-29T14:22:34.164Z,2039.00
2023-03-29T14:23:34.233Z,2013.00
2023-03-29T14:24:34.293Z,1970.00
2023-03-29T14:25:34.394Z,2002.00
2023-03-29T14:26:34.412Z,2024.00
2023-03-29T14:27:34.446Z,2024.00
2023-03-29T14:28:34.503Z,2055.00
2023-03-29T14:29:34.534Z,2024.00
2023-03-29T14:30:34.586Z,2003.00
2023-03-29T14:31:34.614Z,2005.00
2023-03-29T14:32:34.653Z,2012.00
2023-03-29T14:33:34.643Z,2020.00
2023-03-29T14:34:34.601Z,2036.00
2023-03-29T14:35:34.758Z,2066.00
2023-03-29T14:36:34.789Z,2104.00
2023-03-29T14:37:34.608Z,2135.00
2023-03-29T14:38:34.617Z,2149.00
2023-03-29T14:39:34.611Z,2125.00
2023-03-29T14:40:34.626Z,2143.00
2023-03-29T14:41:34.623Z,2162.00
2023-03-29T14:42:34.607Z,2118.00
2023-03-29T14:43:34.643Z,2116.00
2023-03-29T14:44:34.660Z,2112.00
2023-03-29T14:45:34.614Z,2123.00
2023-03-29T14:46:34.664Z,2133.00
2023-03-29T14:47:34.688Z,2139.00
2023-03-29T14:48:34.624Z,2128.00
2023-03-29T14:49:34.665Z,2136.00
2023-03-29T14:50:34.692Z,2155.00
2023-03-29T14:51:34.762Z,2152.00
2023-03-29T14:52:34.744Z,2175.00
2023-03-29T14:53:34.774Z,2209.00
2023-03-29T14:54:34.825Z,2257.00
2023-03-29T14:55:34.852Z,2315.00
2023-03-29T14:56:34.889Z,2345.00
2023-03-29T14:57:34.919Z,2376.00
2023-03-29T14:58:34.943Z,2395.00
2023-03-29T14:59:34.941Z,2422.00
2023-03-29T15:00:35.038Z,2434.00
2023-03-29T15:01:35.080Z,2474.00
2023-03-29T15:02:35.124Z,2517.00
2023-03-29T15:03:35.177Z,2498.00
2023-03-29T15:04:35.140Z,2513.00
2023-03-29T15:05:35.153Z,2541.00
2023-03-29T15:06:35.161Z,2570.00
2023-03-29T15:07:35.199Z,2588.00
2023-03-29T15:08:35.205Z,2614.00
2023-03-29T15:09:35.214Z,2638.00
2023-03-29T15:10:35.302Z,2660.00
2023-03-29T15:11:35.405Z,2669.00
2023-03-29T15:12:35.423Z,2706.00
2023-03-29T15:13:35.450Z,2706.00
2023-03-29T15:14:35.487Z,2733.00
2023-03-29T15:15:35.515Z,2751.00
2023-03-29T15:16:35.548Z,2762.00
2023-03-29T15:17:49.594Z,2779.00
2023-03-29T15:18:36.602Z,2781.00
2023-03-29T15:19:35.566Z,2785.00
2023-03-29T15:20:35.556Z,2781.00
2023-03-29T15:21:35.573Z,2792.00
2023-03-29T15:22:35.554Z,2809.00
2023-03-29T15:23:35.563Z,2840.00
2023-03-29T15:24:35.552Z,2885.00
2023-03-29T15:25:35.544Z,2888.00
2023-03-29T15:26:35.544Z,2904.00
2023-03-29T15:27:35.542Z,2932.00
2023-03-29T15:28:35.539Z,2943.00
2023-03-29T15:29:35.541Z,2920.00
2023-03-29T15:30:35.542Z,2938.00
2023-03-29T15:31:35.590Z,2958.00
2023-03-29T15:32:35.570Z,2967.00
2023-03-29T15:33:35.578Z,2978.00
2023-03-29T15:34:35.553Z,2975.00
2023-03-29T15:35:35.626Z,2985.00
2023-03-29T15:36:35.567Z,2984.00
2023-03-29T15:37:35.551Z,2985.00
2023-03-29T15:38:43.235Z,2990.00
2023-03-29T15:39:36.544Z,2986.00
2023-03-29T15:40:35.592Z,2992.00
2023-03-29T15:41:35.547Z,3002.00
2023-03-29T15:42:35.540Z,3014.00
2023-03-29T15:43:35.530Z,3055.00
2023-03-29T15:44:35.537Z,3051.00
2023-03-29T15:45:35.525Z,3045.00
2023-03-29T15:46:35.568Z,3055.00
2023-03-29T15:47:35.571Z,3051.00
2023-03-29T15:48:35.516Z,3059.00
2023-03-29T15:49:35.504Z,3068.00
2023-03-29T15:50:35.505Z,3066.00
2023-03-29T15:51:35.498Z,3062.00
2023-03-29T15:52:35.502Z,3068.00
2023-03-29T15:53:35.508Z,3072.00
2023-03-29T15:54:35.502Z,3064.00
2023-03-29T15:55:35.489Z,3076.00
2023-03-29T15:56:35.486Z,3065.00
2023-03-29T15:57:35.569Z,3078.00
2023-03-29T15:58:35.549Z,3083.00
2023-03-29T15:59:35.544Z,3074.00
2023-03-29T16:00:35.577Z,3081.00
2023-03-29T16:01:35.566Z,3082.00
2023-03-29T16:02:35.644Z,3080.00
2023-03-29T16:03:35.564Z,3081.00
2023-03-29T16:04:35.560Z,3082.00
2023-03-29T16:05:35.567Z,3083.00
2023-03-29T16:06:35.564Z,3085.00
2023-03-29T16:07:35.567Z,3093.00
2023-03-29T16:08:35.557Z,3108.00
2023-03-29T16:09:35.565Z,3099.00
2023-03-29T16:10:35.571Z,3089.00
2023-03-29T16:11:35.559Z,3092.00
2023-03-29T16:12:35.546Z,3084.00
2023-03-29T16:13:35.550Z,3082.00
2023-03-29T16:14:35.556Z,3085.00
2023-03-29T16:15:35.557Z,3086.00
2023-03-29T16:16:35.580Z,3087.00
2023-03-29T16:17:35.605Z,3088.00
2023-03-29T16:18:35.569Z,3083.00
2023-03-29T16:19:35.560Z,3080.00
2023-03-29T16:20:35.593Z,3092.00
2023-03-29T16:21:35.578Z,3074.00
2023-03-29T16:22:35.587Z,3088.00
2023-03-29T16:23:35.591Z,3095.00
2023-03-29T16:24:35.633Z,3072.00
2023-03-29T16:25:35.593Z,3083.00
2023-03-29T16:26:35.591Z,3055.00
2023-03-29T16:27:35.609Z,3072.00
2023-03-29T16:28:35.601Z,3068.00
2023-03-29T16:29:35.621Z,3071.00
2023-03-29T16:30:35.616Z,3065.00
2023-03-29T16:31:35.659Z,3053.00
2023-03-29T16:32:35.627Z,3068.00
2023-03-29T16:33:35.657Z,3067.00
2023-03-29T16:34:35.628Z,3079.00
2023-03-29T16:35:35.659Z,3068.00
2023-03-29T16:36:35.638Z,3054.00
2023-03-29T16:37:35.622Z,3060.00
2023-03-29T16:38:35.624Z,3061.00
2023-03-29T16:39:35.624Z,3062.00
2023-03-29T16:40:35.685Z,3064.00
2023-03-29T16:41:35.620Z,3059.00
2023-03-29T16:42:35.617Z,3074.00
2023-03-29T16:43:35.623Z,3046.00
2023-03-29T16:44:35.638Z,3051.00
2023-03-29T16:45:35.690Z,3035.00
2023-03-29T16:46:35.689Z,3030.00
2023-03-29T16:47:35.641Z,3051.00
2023-03-29T16:48:35.639Z,3047.00
2023-03-29T16:49:35.641Z,3032.00
2023-03-29T16:50:35.692Z,3033.00
2023-03-29T16:51:35.645Z,3014.00
2023-03-29T16:52:35.639Z,3020.00
2023-03-29T16:53:35.645Z,3040.00
2023-03-29T16:54:35.651Z,3024.00
2023-03-29T16:55:35.639Z,3018.00
2023-03-29T16:56:35.638Z,3021.00
2023-03-29T16:57:35.644Z,3022.00
2023-03-29T16:58:35.647Z,3014.00
2023-03-29T16:59:35.656Z,3015.00
2023-03-29T17:00:35.652Z,3013.00
2023-03-29T17:01:35.749Z,3013.00
2023-03-29T17:02:35.687Z,3014.00
2023-03-29T17:03:35.641Z,2995.00
2023-03-29T17:04:35.714Z,2993.00
2023-03-29T17:05:35.643Z,2997.00
2023-03-29T17:06:35.671Z,3005.00
2023-03-29T17:07:35.962Z,2999.00
2023-03-29T17:08:35.689Z,2995.00
2023-03-29T17:09:35.712Z,2983.00
2023-03-29T17:10:35.726Z,2984.00
2023-03-29T17:11:35.768Z,2985.00
2023-03-29T17:12:35.724Z,2986.00
2023-03-29T17:13:35.709Z,2990.00
2023-03-29T17:14:35.721Z,3005.00
2023-03-29T17:15:38.150Z,2987.00
2023-03-29T17:16:35.790Z,2987.00
2023-03-29T17:17:35.747Z,2990.00
2023-03-29T17:18:35.748Z,2988.00
2023-03-29T17:19:35.721Z,2988.00
2023-03-29T17:20:35.740Z,2982.00
2023-03-29T17:21:35.734Z,2984.00
2023-03-29T17:22:35.729Z,2959.00
2023-03-29T17:23:35.736Z,2969.00
2023-03-29T17:24:35.734Z,2987.00
2023-03-29T17:25:35.744Z,2977.00
2023-03-29T17:26:35.738Z,2963.00
2023-03-29T17:27:35.730Z,2961.00
2023-03-29T17:28:35.737Z,2956.00
2023-03-29T17:29:35.744Z,2962.00
2023-03-29T17:30:35.750Z,2954.00
2023-03-29T17:31:35.786Z,2949.00
2023-03-29T17:32:35.817Z,2928.00
2023-03-29T17:33:35.769Z,2945.00
2023-03-29T17:34:35.775Z,2948.00
2023-03-29T17:35:35.911Z,2947.00
2023-03-29T17:36:35.892Z,2940.00
2023-03-29T17:37:35.914Z,2936.00
2023-03-29T17:38:35.925Z,2930.00
2023-03-29T17:39:35.951Z,2934.00
2023-03-29T17:40:35.955Z,2918.00
2023-03-29T17:41:36.033Z,2918.00
2023-03-29T17:42:36.149Z,2922.00
2023-03-29T17:43:36.173Z,2921.00
2023-03-29T17:44:36.176Z,2914.00
2023-03-29T17:45:36.205Z,2908.00
2023-03-29T17:46:36.247Z,2912.00
2023-03-29T17:47:36.280Z,2903.00
2023-03-29T17:48:36.306Z,2906.00
2023-03-29T17:49:36.331Z,2898.00
2023-03-29T17:50:36.364Z,2899.00
2023-03-29T17:51:36.355Z,2901.00
2023-03-29T17:52:36.399Z,2890.00
2023-03-29T17:53:36.401Z,2899.00
2023-03-29T17:54:36.426Z,2895.00
2023-03-29T17:55:36.525Z,2891.00
2023-03-29T17:56:36.462Z,2889.00
2023-03-29T17:57:36.471Z,2891.00
2023-03-29T17:58:36.565Z,2861.00
2023-03-29T17:59:36.571Z,2889.00
2023-03-29T18:00:36.590Z,2890.00
2023-03-29T18:01:39.088Z,2890.00
2023-03-29T18:02:36.694Z,2890.00
2023-03-29T18:03:36.572Z,2890.00
2023-03-29T18:04:36.568Z,2892.00
2023-03-29T18:05:36.575Z,2897.00
2023-03-29T18:06:36.569Z,2899.00
2023-03-29T18:07:36.580Z,2881.00
2023-03-29T18:08:36.599Z,2872.00
2023-03-29T18:09:36.593Z,2882.00
2023-03-29T18:10:36.587Z,2873.00
2023-03-29T18:11:36.589Z,2870.00
2023-03-29T18:12:36.608Z,2864.00
2023-03-29T18:13:36.592Z,2871.00
2023-03-29T18:14:36.597Z,2869.00
2023-03-29T18:15:36.611Z,2864.00
2023-03-29T18:16:36.636Z,2848.00
2023-03-29T18:17:36.727Z,2862.00
2023-03-29T18:18:36.604Z,2846.00
2023-03-29T18:19:36.609Z,2836.00
2023-03-29T18:20:36.605Z,2844.00
2023-03-29T18:21:36.609Z,2866.00
2023-03-29T18:22:36.620Z,2855.00
2023-03-29T18:23:36.609Z,2830.00
2023-03-29T18:24:36.647Z,2826.00
2023-03-29T18:25:36.620Z,2835.00
2023-03-29T18:26:36.631Z,2829.00
2023-03-29T18:27:36.679Z,2818.00
2023-03-29T18:28:36.688Z,2819.00